Weather at Greater Moncton Roméo LeBlanc International Airport

Public forecast

Using degrees Celsius for public forecast. Weather courtesy of forecast.io.

Current aviation weather report (METAR) for Greater Moncton Roméo LeBlanc International Airport

Retrieved 2020/12/02 17:00 UTC (14 minutes ago):

CYQM 021700Z 18005KT 15SM FEW005 SCT030 BKN080 OVC100 09/09 A2986 RMK SF1SC3AC3AC2 SF TR SLP115

Aviation forecast (TAF) for Greater Moncton Roméo LeBlanc International Airport

Retrieved 2020/12/02 12:42 UTC (5 hours ago):

TAF CYQM 021138Z 0212/0312 23012G22KT 6SM -RA BR SCT008 OVC025 TEMPO 0212/0215 3SM RA BR BKN008 OVC020 BECMG 0212/0213 21012KT FM021500 20010KT P6SM BKN025 OVC060 TEMPO 0215/0218 BKN015 OVC060 FM022100 21010KT P6SM SCT015 OVC160 FM030300 18005KT P6SM BKN025 FM030500 25010KT 3SM -DZ BR BKN007 OVC020 FM031000 23010KT P6SM SCT020 RMK NXT FCST BY 021800Z